sensor_id;sensor_type;location;lat;lon;timestamp;P1;durP1;ratioP1;P2;durP2;ratioP2
19566;SDS011;9930;49.240;8.548;2024-01-15T00:01:00;20.13;;;11.53;;
19566;SDS011;9930;49.240;8.548;2024-01-15T00:03:26;17.93;;;10.83;;
19566;SDS011;9930;49.240;8.548;2024-01-15T00:05:56;18.43;;;10.93;;
19566;SDS011;9930;49.240;8.548;2024-01-15T00:08:22;17.93;;;10.67;;
19566;SDS011;9930;49.240;8.548;2024-01-15T00:10:48;18.83;;;11.17;;
19566;SDS011;9930;49.240;8.548;2024-01-15T00:13:14;16.80;;;10.57;;
19566;SDS011;9930;49.240;8.548;2024-01-15T00:15:43;16.00;;;9.90;;
19566;SDS011;9930;49.240;8.548;2024-01-15T00:18:09;20.30;;;12.37;;
19566;SDS011;9930;49.240;8.548;2024-01-15T00:20:40;17.10;;;10.43;;
19566;SDS011;9930;49.240;8.548;2024-01-15T00:23:06;20.50;;;10.90;;
19566;SDS011;9930;49.240;8.548;2024-01-15T00:25:34;20.27;;;11.43;;
19566;SDS011;9930;49.240;8.548;2024-01-15T00:28:00;18.47;;;10.70;;
19566;SDS011;9930;49.240;8.548;2024-01-15T00:30:26;16.60;;;10.77;;
19566;SDS011;9930;49.240;8.548;2024-01-15T00:32:52;20.27;;;12.13;;
19566;SDS011;9930;49.240;8.548;2024-01-15T00:35:18;21.47;;;12.17;;
19566;SDS011;9930;49.240;8.548;2024-01-15T00:37:44;19.93;;;11.17;;
19566;SDS011;9930;49.240;8.548;2024-01-15T00:40:10;19.90;;;11.87;;
19566;SDS011;9930;49.240;8.548;2024-01-15T00:42:39;19.20;;;10.87;;
19566;SDS011;9930;49.240;8.548;2024-01-15T00:45:08;18.03;;;11.50;;
19566;SDS011;9930;49.240;8.548;2024-01-15T00:47:34;20.03;;;11.40;;
19566;SDS011;9930;49.240;8.548;2024-01-15T00:50:00;21.97;;;11.97;;
19566;SDS011;9930;49.240;8.548;2024-01-15T00:52:26;20.87;;;12.10;;
19566;SDS011;9930;49.240;8.548;2024-01-15T00:54:55;16.20;;;10.90;;
19566;SDS011;9930;49.240;8.548;2024-01-15T00:57:21;20.17;;;11.00;;
19566;SDS011;9930;49.240;8.548;2024-01-15T00:59:48;20.63;;;11.63;;
19566;SDS011;9930;49.240;8.548;2024-01-15T01:02:14;21.13;;;11.93;;
19566;SDS011;9930;49.240;8.548;2024-01-15T01:04:42;23.03;;;12.67;;
19566;SDS011;9930;49.240;8.548;2024-01-15T01:07:08;21.40;;;11.60;;
19566;SDS011;9930;49.240;8.548;2024-01-15T01:09:34;20.73;;;11.13;;
19566;SDS011;9930;49.240;8.548;2024-01-15T01:12:02;19.50;;;11.00;;
19566;SDS011;9930;49.240;8.548;2024-01-15T01:14:28;18.70;;;12.07;;
19566;SDS011;9930;49.240;8.548;2024-01-15T01:16:54;20.03;;;11.90;;
19566;SDS011;9930;49.240;8.548;2024-01-15T01:19:22;21.63;;;11.67;;
19566;SDS011;9930;49.240;8.548;2024-01-15T01:21:50;20.53;;;12.13;;
19566;SDS011;9930;49.240;8.548;2024-01-15T01:24:17;22.27;;;11.83;;
19566;SDS011;9930;49.240;8.548;2024-01-15T01:26:52;19.47;;;11.43;;
19566;SDS011;9930;49.240;8.548;2024-01-15T01:29:18;20.63;;;11.63;;
19566;SDS011;9930;49.240;8.548;2024-01-15T01:31:45;23.40;;;12.60;;
19566;SDS011;9930;49.240;8.548;2024-01-15T01:34:14;21.57;;;12.03;;
19566;SDS011;9930;49.240;8.548;2024-01-15T01:36:43;20.27;;;12.70;;
19566;SDS011;9930;49.240;8.548;2024-01-15T01:39:09;21.93;;;12.53;;
19566;SDS011;9930;49.240;8.548;2024-01-15T01:41:35;22.83;;;12.80;;
19566;SDS011;9930;49.240;8.548;2024-01-15T01:44:03;22.53;;;12.90;;
19566;SDS011;9930;49.240;8.548;2024-01-15T01:46:29;23.20;;;12.87;;
19566;SDS011;9930;49.240;8.548;2024-01-15T01:48:55;22.77;;;12.80;;
19566;SDS011;9930;49.240;8.548;2024-01-15T01:51:22;18.30;;;11.23;;
19566;SDS011;9930;49.240;8.548;2024-01-15T01:53:52;23.63;;;12.70;;
19566;SDS011;9930;49.240;8.548;2024-01-15T01:56:20;22.07;;;13.37;;
19566;SDS011;9930;49.240;8.548;2024-01-15T01:58:49;21.77;;;12.10;;
19566;SDS011;9930;49.240;8.548;2024-01-15T02:01:15;22.03;;;12.33;;
19566;SDS011;9930;49.240;8.548;2024-01-15T02:03:43;18.03;;;11.73;;
19566;SDS011;9930;49.240;8.548;2024-01-15T02:06:10;21.50;;;12.63;;
19566;SDS011;9930;49.240;8.548;2024-01-15T02:08:39;19.40;;;11.90;;
19566;SDS011;9930;49.240;8.548;2024-01-15T02:11:09;18.73;;;11.73;;
19566;SDS011;9930;49.240;8.548;2024-01-15T02:13:35;19.13;;;12.10;;
19566;SDS011;9930;49.240;8.548;2024-01-15T02:16:01;20.90;;;11.77;;
19566;SDS011;9930;49.240;8.548;2024-01-15T02:18:38;18.47;;;11.47;;
19566;SDS011;9930;49.240;8.548;2024-01-15T02:21:11;18.67;;;11.27;;
19566;SDS011;9930;49.240;8.548;2024-01-15T02:23:37;17.93;;;10.83;;
19566;SDS011;9930;49.240;8.548;2024-01-15T02:26:09;17.77;;;11.03;;
19566;SDS011;9930;49.240;8.548;2024-01-15T02:28:35;17.13;;;10.57;;
19566;SDS011;9930;49.240;8.548;2024-01-15T02:31:01;18.07;;;11.33;;
19566;SDS011;9930;49.240;8.548;2024-01-15T02:33:33;16.17;;;10.57;;
19566;SDS011;9930;49.240;8.548;2024-01-15T02:36:03;19.20;;;11.17;;
19566;SDS011;9930;49.240;8.548;2024-01-15T02:38:30;18.13;;;10.97;;
19566;SDS011;9930;49.240;8.548;2024-01-15T02:40:58;17.50;;;10.60;;
19566;SDS011;9930;49.240;8.548;2024-01-15T02:43:24;20.43;;;10.87;;
19566;SDS011;9930;49.240;8.548;2024-01-15T02:45:53;17.50;;;10.23;;
19566;SDS011;9930;49.240;8.548;2024-01-15T02:48:19;18.17;;;10.30;;
19566;SDS011;9930;49.240;8.548;2024-01-15T02:50:45;16.63;;;9.97;;
19566;SDS011;9930;49.240;8.548;2024-01-15T02:53:17;16.60;;;9.60;;
19566;SDS011;9930;49.240;8.548;2024-01-15T02:55:49;14.97;;;9.63;;
19566;SDS011;9930;49.240;8.548;2024-01-15T02:58:17;13.30;;;9.27;;
19566;SDS011;9930;49.240;8.548;2024-01-15T03:00:43;14.93;;;9.40;;
19566;SDS011;9930;49.240;8.548;2024-01-15T03:03:09;15.87;;;9.50;;
19566;SDS011;9930;49.240;8.548;2024-01-15T03:05:35;17.17;;;10.03;;
19566;SDS011;9930;49.240;8.548;2024-01-15T03:08:04;15.13;;;9.47;;
19566;SDS011;9930;49.240;8.548;2024-01-15T03:10:33;15.50;;;9.37;;
19566;SDS011;9930;49.240;8.548;2024-01-15T03:12:59;15.57;;;9.17;;
19566;SDS011;9930;49.240;8.548;2024-01-15T03:15:25;15.80;;;9.30;;
19566;SDS011;9930;49.240;8.548;2024-01-15T03:17:51;15.13;;;8.80;;
19566;SDS011;9930;49.240;8.548;2024-01-15T03:20:17;14.00;;;8.93;;
19566;SDS011;9930;49.240;8.548;2024-01-15T03:22:43;13.53;;;8.20;;
19566;SDS011;9930;49.240;8.548;2024-01-15T03:25:09;13.33;;;8.40;;
19566;SDS011;9930;49.240;8.548;2024-01-15T03:27:35;14.60;;;9.27;;
19566;SDS011;9930;49.240;8.548;2024-01-15T03:30:06;12.77;;;8.57;;
19566;SDS011;9930;49.240;8.548;2024-01-15T03:32:32;14.93;;;9.10;;
19566;SDS011;9930;49.240;8.548;2024-01-15T03:35:00;14.03;;;8.90;;
19566;SDS011;9930;49.240;8.548;2024-01-15T03:37:29;12.60;;;8.10;;
19566;SDS011;9930;49.240;8.548;2024-01-15T03:39:55;14.00;;;8.30;;
19566;SDS011;9930;49.240;8.548;2024-01-15T03:42:21;13.97;;;8.13;;
19566;SDS011;9930;49.240;8.548;2024-01-15T03:44:47;13.03;;;8.17;;
19566;SDS011;9930;49.240;8.548;2024-01-15T03:47:14;13.80;;;8.50;;
19566;SDS011;9930;49.240;8.548;2024-01-15T03:49:40;16.03;;;9.20;;
19566;SDS011;9930;49.240;8.548;2024-01-15T03:52:06;12.57;;;7.93;;
19566;SDS011;9930;49.240;8.548;2024-01-15T03:54:32;12.07;;;8.17;;
19566;SDS011;9930;49.240;8.548;2024-01-15T03:56:58;13.37;;;8.43;;
19566;SDS011;9930;49.240;8.548;2024-01-15T03:59:24;13.63;;;8.20;;
19566;SDS011;9930;49.240;8.548;2024-01-15T04:01:54;14.60;;;8.63;;
19566;SDS011;9930;49.240;8.548;2024-01-15T04:04:19;11.83;;;8.20;;
19566;SDS011;9930;49.240;8.548;2024-01-15T04:06:45;13.70;;;8.83;;
19566;SDS011;9930;49.240;8.548;2024-01-15T04:09:18;12.53;;;7.27;;
19566;SDS011;9930;49.240;8.548;2024-01-15T04:11:47;12.33;;;7.97;;
19566;SDS011;9930;49.240;8.548;2024-01-15T04:14:13;11.40;;;7.40;;
19566;SDS011;9930;49.240;8.548;2024-01-15T04:16:47;13.93;;;7.80;;
19566;SDS011;9930;49.240;8.548;2024-01-15T04:19:13;10.43;;;7.67;;
19566;SDS011;9930;49.240;8.548;2024-01-15T04:21:40;14.97;;;8.50;;
19566;SDS011;9930;49.240;8.548;2024-01-15T04:24:06;13.37;;;8.37;;
19566;SDS011;9930;49.240;8.548;2024-01-15T04:26:35;11.23;;;7.97;;
19566;SDS011;9930;49.240;8.548;2024-01-15T04:29:01;11.83;;;7.80;;
19566;SDS011;9930;49.240;8.548;2024-01-15T04:31:29;12.40;;;7.67;;
19566;SDS011;9930;49.240;8.548;2024-01-15T04:33:58;13.00;;;8.20;;
19566;SDS011;9930;49.240;8.548;2024-01-15T04:36:27;12.80;;;7.93;;
19566;SDS011;9930;49.240;8.548;2024-01-15T04:39:06;13.93;;;8.33;;
19566;SDS011;9930;49.240;8.548;2024-01-15T04:41:35;13.10;;;8.60;;
19566;SDS011;9930;49.240;8.548;2024-01-15T04:44:01;12.30;;;7.93;;
19566;SDS011;9930;49.240;8.548;2024-01-15T04:46:30;12.93;;;8.27;;
19566;SDS011;9930;49.240;8.548;2024-01-15T04:48:56;12.60;;;8.07;;
19566;SDS011;9930;49.240;8.548;2024-01-15T04:51:22;12.47;;;8.13;;
19566;SDS011;9930;49.240;8.548;2024-01-15T04:53:55;13.13;;;8.77;;
19566;SDS011;9930;49.240;8.548;2024-01-15T04:56:20;14.63;;;8.70;;
19566;SDS011;9930;49.240;8.548;2024-01-15T04:58:47;12.20;;;7.83;;
19566;SDS011;9930;49.240;8.548;2024-01-15T05:01:16;13.77;;;8.63;;
19566;SDS011;9930;49.240;8.548;2024-01-15T05:03:43;12.80;;;9.17;;
19566;SDS011;9930;49.240;8.548;2024-01-15T05:06:09;15.60;;;9.77;;
19566;SDS011;9930;49.240;8.548;2024-01-15T05:08:35;14.33;;;8.90;;
19566;SDS011;9930;49.240;8.548;2024-01-15T05:11:06;13.90;;;8.53;;
19566;SDS011;9930;49.240;8.548;2024-01-15T05:13:32;13.23;;;8.50;;
19566;SDS011;9930;49.240;8.548;2024-01-15T05:15:58;14.70;;;9.17;;
19566;SDS011;9930;49.240;8.548;2024-01-15T05:18:27;12.73;;;8.23;;
19566;SDS011;9930;49.240;8.548;2024-01-15T05:20:53;14.60;;;9.23;;
19566;SDS011;9930;49.240;8.548;2024-01-15T05:23:23;14.17;;;9.07;;
19566;SDS011;9930;49.240;8.548;2024-01-15T05:25:49;15.20;;;9.63;;
19566;SDS011;9930;49.240;8.548;2024-01-15T05:28:15;15.10;;;9.27;;
19566;SDS011;9930;49.240;8.548;2024-01-15T05:30:49;13.20;;;8.97;;
19566;SDS011;9930;49.240;8.548;2024-01-15T05:33:16;12.90;;;8.80;;
19566;SDS011;9930;49.240;8.548;2024-01-15T05:35:47;12.43;;;8.87;;
19566;SDS011;9930;49.240;8.548;2024-01-15T05:38:15;15.00;;;9.87;;
19566;SDS011;9930;49.240;8.548;2024-01-15T05:40:50;13.87;;;9.20;;
19566;SDS011;9930;49.240;8.548;2024-01-15T05:43:18;12.50;;;8.60;;
19566;SDS011;9930;49.240;8.548;2024-01-15T05:45:45;13.53;;;8.87;;
19566;SDS011;9930;49.240;8.548;2024-01-15T05:48:13;14.57;;;9.37;;
19566;SDS011;9930;49.240;8.548;2024-01-15T05:50:39;12.83;;;8.53;;
19566;SDS011;9930;49.240;8.548;2024-01-15T05:53:06;13.70;;;9.37;;
19566;SDS011;9930;49.240;8.548;2024-01-15T05:55:33;13.70;;;8.40;;
19566;SDS011;9930;49.240;8.548;2024-01-15T05:58:01;13.33;;;8.50;;
19566;SDS011;9930;49.240;8.548;2024-01-15T06:00:27;11.43;;;8.30;;
19566;SDS011;9930;49.240;8.548;2024-01-15T06:02:52;13.87;;;9.07;;
19566;SDS011;9930;49.240;8.548;2024-01-15T06:05:20;12.57;;;8.90;;
19566;SDS011;9930;49.240;8.548;2024-01-15T06:07:49;15.07;;;9.27;;
19566;SDS011;9930;49.240;8.548;2024-01-15T06:10:18;14.53;;;9.20;;
19566;SDS011;9930;49.240;8.548;2024-01-15T06:12:47;15.30;;;9.00;;
19566;SDS011;9930;49.240;8.548;2024-01-15T06:15:18;15.43;;;9.87;;
19566;SDS011;9930;49.240;8.548;2024-01-15T06:17:48;14.67;;;9.30;;
19566;SDS011;9930;49.240;8.548;2024-01-15T06:20:22;14.77;;;9.77;;
19566;SDS011;9930;49.240;8.548;2024-01-15T06:22:48;14.33;;;9.07;;
19566;SDS011;9930;49.240;8.548;2024-01-15T06:25:20;15.47;;;9.90;;
19566;SDS011;9930;49.240;8.548;2024-01-15T06:27:52;14.27;;;9.17;;
19566;SDS011;9930;49.240;8.548;2024-01-15T06:30:20;13.10;;;8.97;;
19566;SDS011;9930;49.240;8.548;2024-01-15T06:32:49;15.97;;;10.33;;
19566;SDS011;9930;49.240;8.548;2024-01-15T06:35:15;14.63;;;8.87;;
19566;SDS011;9930;49.240;8.548;2024-01-15T06:37:48;14.27;;;10.13;;
19566;SDS011;9930;49.240;8.548;2024-01-15T06:40:20;14.93;;;9.10;;
19566;SDS011;9930;49.240;8.548;2024-01-15T06:42:45;15.47;;;9.83;;
19566;SDS011;9930;49.240;8.548;2024-01-15T06:45:15;14.23;;;9.33;;
19566;SDS011;9930;49.240;8.548;2024-01-15T06:47:50;15.73;;;9.93;;
19566;SDS011;9930;49.240;8.548;2024-01-15T06:50:21;13.80;;;9.37;;
19566;SDS011;9930;49.240;8.548;2024-01-15T06:52:49;15.60;;;10.03;;
19566;SDS011;9930;49.240;8.548;2024-01-15T06:55:15;14.70;;;9.43;;
19566;SDS011;9930;49.240;8.548;2024-01-15T06:57:44;16.00;;;10.10;;
19566;SDS011;9930;49.240;8.548;2024-01-15T07:00:14;14.50;;;9.13;;
19566;SDS011;9930;49.240;8.548;2024-01-15T07:02:44;13.47;;;9.17;;
19566;SDS011;9930;49.240;8.548;2024-01-15T07:05:14;12.50;;;8.50;;
19566;SDS011;9930;49.240;8.548;2024-01-15T07:07:40;14.20;;;9.60;;
19566;SDS011;9930;49.240;8.548;2024-01-15T07:10:10;13.53;;;9.33;;
19566;SDS011;9930;49.240;8.548;2024-01-15T07:12:36;14.10;;;9.60;;
19566;SDS011;9930;49.240;8.548;2024-01-15T07:15:02;12.83;;;9.17;;
19566;SDS011;9930;49.240;8.548;2024-01-15T07:17:33;14.40;;;9.93;;
19566;SDS011;9930;49.240;8.548;2024-01-15T07:20:05;12.87;;;8.73;;
19566;SDS011;9930;49.240;8.548;2024-01-15T07:22:35;14.27;;;9.07;;
19566;SDS011;9930;49.240;8.548;2024-01-15T07:25:04;13.27;;;9.20;;
19566;SDS011;9930;49.240;8.548;2024-01-15T07:27:32;12.40;;;8.67;;
19566;SDS011;9930;49.240;8.548;2024-01-15T07:29:58;13.60;;;9.13;;
19566;SDS011;9930;49.240;8.548;2024-01-15T07:32:24;12.90;;;8.63;;
19566;SDS011;9930;49.240;8.548;2024-01-15T07:34:53;13.73;;;9.60;;
19566;SDS011;9930;49.240;8.548;2024-01-15T07:37:22;15.00;;;10.13;;
19566;SDS011;9930;49.240;8.548;2024-01-15T07:39:51;13.40;;;9.20;;
19566;SDS011;9930;49.240;8.548;2024-01-15T07:42:18;14.33;;;9.53;;
19566;SDS011;9930;49.240;8.548;2024-01-15T07:44:50;14.90;;;9.43;;
19566;SDS011;9930;49.240;8.548;2024-01-15T07:47:21;13.67;;;9.17;;
19566;SDS011;9930;49.240;8.548;2024-01-15T07:49:49;14.17;;;9.70;;
19566;SDS011;9930;49.240;8.548;2024-01-15T07:52:19;14.10;;;9.47;;
19566;SDS011;9930;49.240;8.548;2024-01-15T07:54:48;14.87;;;9.67;;
19566;SDS011;9930;49.240;8.548;2024-01-15T07:57:18;12.97;;;8.90;;
19566;SDS011;9930;49.240;8.548;2024-01-15T07:59:50;12.13;;;9.07;;
19566;SDS011;9930;49.240;8.548;2024-01-15T08:02:21;12.20;;;8.97;;
19566;SDS011;9930;49.240;8.548;2024-01-15T08:04:50;10.50;;;8.73;;
19566;SDS011;9930;49.240;8.548;2024-01-15T08:07:18;15.00;;;9.80;;
19566;SDS011;9930;49.240;8.548;2024-01-15T08:09:48;11.90;;;8.20;;
19566;SDS011;9930;49.240;8.548;2024-01-15T08:12:15;11.77;;;8.57;;
19566;SDS011;9930;49.240;8.548;2024-01-15T08:14:45;12.67;;;8.37;;
19566;SDS011;9930;49.240;8.548;2024-01-15T08:17:24;14.10;;;9.97;;
19566;SDS011;9930;49.240;8.548;2024-01-15T08:19:56;12.40;;;8.80;;
19566;SDS011;9930;49.240;8.548;2024-01-15T08:22:26;13.57;;;8.43;;
19566;SDS011;9930;49.240;8.548;2024-01-15T08:24:52;13.50;;;8.70;;
19566;SDS011;9930;49.240;8.548;2024-01-15T08:27:21;11.20;;;8.43;;
19566;SDS011;9930;49.240;8.548;2024-01-15T08:29:54;12.37;;;8.90;;
19566;SDS011;9930;49.240;8.548;2024-01-15T08:32:20;12.67;;;8.67;;
19566;SDS011;9930;49.240;8.548;2024-01-15T08:34:48;11.57;;;8.50;;
19566;SDS011;9930;49.240;8.548;2024-01-15T08:37:18;12.27;;;8.93;;
19566;SDS011;9930;49.240;8.548;2024-01-15T08:39:45;13.60;;;9.07;;
19566;SDS011;9930;49.240;8.548;2024-01-15T08:42:21;13.63;;;8.77;;
19566;SDS011;9930;49.240;8.548;2024-01-15T08:44:50;11.53;;;8.10;;
19566;SDS011;9930;49.240;8.548;2024-01-15T08:47:20;13.20;;;8.57;;
19566;SDS011;9930;49.240;8.548;2024-01-15T08:49:51;11.13;;;7.83;;
19566;SDS011;9930;49.240;8.548;2024-01-15T08:52:18;12.17;;;8.33;;
19566;SDS011;9930;49.240;8.548;2024-01-15T08:54:47;12.60;;;8.90;;
19566;SDS011;9930;49.240;8.548;2024-01-15T08:57:17;12.43;;;8.23;;
19566;SDS011;9930;49.240;8.548;2024-01-15T08:59:50;11.07;;;8.10;;
19566;SDS011;9930;49.240;8.548;2024-01-15T09:02:20;12.43;;;8.50;;
19566;SDS011;9930;49.240;8.548;2024-01-15T09:04:55;10.23;;;8.03;;
19566;SDS011;9930;49.240;8.548;2024-01-15T09:07:21;10.80;;;7.87;;
19566;SDS011;9930;49.240;8.548;2024-01-15T09:09:51;10.80;;;7.83;;
19566;SDS011;9930;49.240;8.548;2024-01-15T09:12:20;11.07;;;7.83;;
19566;SDS011;9930;49.240;8.548;2024-01-15T09:14:49;13.03;;;8.57;;
19566;SDS011;9930;49.240;8.548;2024-01-15T09:17:20;12.53;;;8.07;;
19566;SDS011;9930;49.240;8.548;2024-01-15T09:19:51;11.50;;;8.13;;
19566;SDS011;9930;49.240;8.548;2024-01-15T09:22:18;10.73;;;7.73;;
19566;SDS011;9930;49.240;8.548;2024-01-15T09:24:52;11.73;;;7.77;;
19566;SDS011;9930;49.240;8.548;2024-01-15T09:27:21;10.27;;;7.50;;
19566;SDS011;9930;49.240;8.548;2024-01-15T09:29:52;11.07;;;7.50;;
19566;SDS011;9930;49.240;8.548;2024-01-15T09:32:21;10.70;;;7.90;;
19566;SDS011;9930;49.240;8.548;2024-01-15T09:34:50;12.53;;;9.23;;
19566;SDS011;9930;49.240;8.548;2024-01-15T09:37:21;13.57;;;9.00;;
19566;SDS011;9930;49.240;8.548;2024-01-15T09:39:51;12.67;;;8.63;;
19566;SDS011;9930;49.240;8.548;2024-01-15T09:42:21;12.43;;;8.53;;
19566;SDS011;9930;49.240;8.548;2024-01-15T09:44:53;14.33;;;9.13;;
19566;SDS011;9930;49.240;8.548;2024-01-15T09:47:21;12.33;;;8.40;;
19566;SDS011;9930;49.240;8.548;2024-01-15T09:49:51;12.40;;;8.77;;
19566;SDS011;9930;49.240;8.548;2024-01-15T09:52:20;11.87;;;8.60;;
19566;SDS011;9930;49.240;8.548;2024-01-15T09:55:20;13.17;;;8.80;;
19566;SDS011;9930;49.240;8.548;2024-01-15T09:57:50;13.87;;;9.40;;
19566;SDS011;9930;49.240;8.548;2024-01-15T10:00:24;12.10;;;9.33;;
19566;SDS011;9930;49.240;8.548;2024-01-15T10:02:52;13.57;;;9.27;;
19566;SDS011;9930;49.240;8.548;2024-01-15T10:05:25;14.23;;;8.83;;
19566;SDS011;9930;49.240;8.548;2024-01-15T10:07:53;12.93;;;8.93;;
19566;SDS011;9930;49.240;8.548;2024-01-15T10:10:27;13.73;;;9.00;;
19566;SDS011;9930;49.240;8.548;2024-01-15T10:12:59;13.40;;;9.10;;
19566;SDS011;9930;49.240;8.548;2024-01-15T10:15:29;12.27;;;8.93;;
19566;SDS011;9930;49.240;8.548;2024-01-15T10:18:02;13.70;;;9.20;;
19566;SDS011;9930;49.240;8.548;2024-01-15T10:20:34;12.50;;;9.13;;
19566;SDS011;9930;49.240;8.548;2024-01-15T10:23:10;12.07;;;8.83;;
19566;SDS011;9930;49.240;8.548;2024-01-15T10:25:51;13.23;;;9.10;;
19566;SDS011;9930;49.240;8.548;2024-01-15T10:28:22;12.70;;;9.17;;
19566;SDS011;9930;49.240;8.548;2024-01-15T10:30:57;13.47;;;9.23;;
19566;SDS011;9930;49.240;8.548;2024-01-15T10:33:25;11.70;;;8.23;;
19566;SDS011;9930;49.240;8.548;2024-01-15T10:35:57;12.33;;;8.50;;
19566;SDS011;9930;49.240;8.548;2024-01-15T10:41:28;11.37;;;7.60;;
19566;SDS011;9930;49.240;8.548;2024-01-15T10:43:57;11.57;;;8.43;;
19566;SDS011;9930;49.240;8.548;2024-01-15T10:46:23;11.57;;;8.27;;
19566;SDS011;9930;49.240;8.548;2024-01-15T10:48:51;10.40;;;8.30;;
19566;SDS011;9930;49.240;8.548;2024-01-15T10:51:27;11.43;;;7.70;;
19566;SDS011;9930;49.240;8.548;2024-01-15T10:53:56;10.27;;;7.67;;
19566;SDS011;9930;49.240;8.548;2024-01-15T10:56:25;9.93;;;7.17;;
19566;SDS011;9930;49.240;8.548;2024-01-15T10:58:55;10.67;;;7.97;;
19566;SDS011;9930;49.240;8.548;2024-01-15T11:01:22;10.47;;;8.00;;
19566;SDS011;9930;49.240;8.548;2024-01-15T11:03:56;10.17;;;8.30;;
19566;SDS011;9930;49.240;8.548;2024-01-15T11:06:24;11.53;;;7.77;;
19566;SDS011;9930;49.240;8.548;2024-01-15T11:09:05;9.93;;;7.50;;
19566;SDS011;9930;49.240;8.548;2024-01-15T11:11:35;10.50;;;7.60;;
19566;SDS011;9930;49.240;8.548;2024-01-15T11:14:07;9.93;;;7.67;;
19566;SDS011;9930;49.240;8.548;2024-01-15T11:19:24;9.67;;;7.57;;
19566;SDS011;9930;49.240;8.548;2024-01-15T11:21:52;11.00;;;8.80;;
19566;SDS011;9930;49.240;8.548;2024-01-15T11:24:36;10.33;;;8.37;;
19566;SDS011;9930;49.240;8.548;2024-01-15T11:27:07;11.23;;;7.80;;
19566;SDS011;9930;49.240;8.548;2024-01-15T11:29:34;12.37;;;7.73;;
19566;SDS011;9930;49.240;8.548;2024-01-15T11:32:06;11.27;;;8.20;;
19566;SDS011;9930;49.240;8.548;2024-01-15T11:37:26;11.93;;;8.50;;
19566;SDS011;9930;49.240;8.548;2024-01-15T11:40:01;12.57;;;8.73;;
19566;SDS011;9930;49.240;8.548;2024-01-15T11:42:36;12.30;;;8.40;;
19566;SDS011;9930;49.240;8.548;2024-01-15T11:45:02;12.23;;;9.07;;
19566;SDS011;9930;49.240;8.548;2024-01-15T11:50:21;12.13;;;8.57;;
19566;SDS011;9930;49.240;8.548;2024-01-15T11:53:00;10.93;;;8.43;;
19566;SDS011;9930;49.240;8.548;2024-01-15T11:58:00;10.73;;;8.57;;
19566;SDS011;9930;49.240;8.548;2024-01-15T12:00:32;10.97;;;8.60;;
19566;SDS011;9930;49.240;8.548;2024-01-15T12:03:05;11.00;;;8.43;;
19566;SDS011;9930;49.240;8.548;2024-01-15T12:05:31;11.43;;;8.63;;
19566;SDS011;9930;49.240;8.548;2024-01-15T12:07:59;10.73;;;8.63;;
19566;SDS011;9930;49.240;8.548;2024-01-15T12:10:25;12.00;;;8.30;;
19566;SDS011;9930;49.240;8.548;2024-01-15T12:15:49;9.10;;;7.43;;
19566;SDS011;9930;49.240;8.548;2024-01-15T12:18:22;11.63;;;9.13;;
19566;SDS011;9930;49.240;8.548;2024-01-15T12:20:52;11.17;;;8.30;;
19566;SDS011;9930;49.240;8.548;2024-01-15T12:23:21;12.20;;;8.13;;
19566;SDS011;9930;49.240;8.548;2024-01-15T12:25:51;10.80;;;8.17;;
19566;SDS011;9930;49.240;8.548;2024-01-15T12:28:20;10.63;;;8.17;;
19566;SDS011;9930;49.240;8.548;2024-01-15T12:30:50;11.63;;;8.40;;
19566;SDS011;9930;49.240;8.548;2024-01-15T12:33:20;12.30;;;9.03;;
19566;SDS011;9930;49.240;8.548;2024-01-15T12:35:52;12.10;;;8.70;;
19566;SDS011;9930;49.240;8.548;2024-01-15T12:38:20;10.83;;;8.37;;
19566;SDS011;9930;49.240;8.548;2024-01-15T12:40:49;10.47;;;8.10;;
19566;SDS011;9930;49.240;8.548;2024-01-15T12:43:19;11.53;;;8.37;;
19566;SDS011;9930;49.240;8.548;2024-01-15T12:45:50;9.50;;;7.77;;
19566;SDS011;9930;49.240;8.548;2024-01-15T12:48:22;10.70;;;8.00;;
19566;SDS011;9930;49.240;8.548;2024-01-15T12:50:55;8.70;;;7.80;;
19566;SDS011;9930;49.240;8.548;2024-01-15T12:53:22;10.50;;;8.00;;
19566;SDS011;9930;49.240;8.548;2024-01-15T12:55:50;8.37;;;7.33;;
19566;SDS011;9930;49.240;8.548;2024-01-15T12:58:21;10.37;;;7.40;;
19566;SDS011;9930;49.240;8.548;2024-01-15T13:00:50;8.03;;;6.87;;
19566;SDS011;9930;49.240;8.548;2024-01-15T13:03:22;9.73;;;7.10;;
19566;SDS011;9930;49.240;8.548;2024-01-15T13:05:50;7.97;;;6.80;;
19566;SDS011;9930;49.240;8.548;2024-01-15T13:08:20;8.47;;;6.77;;
19566;SDS011;9930;49.240;8.548;2024-01-15T13:10:56;6.77;;;5.93;;
19566;SDS011;9930;49.240;8.548;2024-01-15T13:13:29;9.47;;;7.17;;
19566;SDS011;9930;49.240;8.548;2024-01-15T13:15:59;7.20;;;5.90;;
19566;SDS011;9930;49.240;8.548;2024-01-15T13:18:28;7.30;;;6.30;;
19566;SDS011;9930;49.240;8.548;2024-01-15T13:20:55;6.90;;;6.20;;
19566;SDS011;9930;49.240;8.548;2024-01-15T13:23:21;8.63;;;7.30;;
19566;SDS011;9930;49.240;8.548;2024-01-15T13:25:50;10.07;;;7.53;;
19566;SDS011;9930;49.240;8.548;2024-01-15T13:28:22;9.63;;;7.83;;
19566;SDS011;9930;49.240;8.548;2024-01-15T13:30:56;11.93;;;7.80;;
19566;SDS011;9930;49.240;8.548;2024-01-15T13:33:26;8.77;;;7.37;;
19566;SDS011;9930;49.240;8.548;2024-01-15T13:35:52;9.20;;;6.73;;
19566;SDS011;9930;49.240;8.548;2024-01-15T13:38:20;9.07;;;7.10;;
19566;SDS011;9930;49.240;8.548;2024-01-15T13:40:49;8.87;;;7.40;;
19566;SDS011;9930;49.240;8.548;2024-01-15T13:43:21;8.33;;;6.23;;
19566;SDS011;9930;49.240;8.548;2024-01-15T13:45:56;8.80;;;7.17;;
19566;SDS011;9930;49.240;8.548;2024-01-15T13:48:22;8.30;;;7.50;;
19566;SDS011;9930;49.240;8.548;2024-01-15T13:50:50;7.13;;;6.43;;
19566;SDS011;9930;49.240;8.548;2024-01-15T13:53:21;9.03;;;7.20;;
19566;SDS011;9930;49.240;8.548;2024-01-15T13:55:49;10.20;;;7.77;;
19566;SDS011;9930;49.240;8.548;2024-01-15T13:58:21;7.87;;;6.83;;
19566;SDS011;9930;49.240;8.548;2024-01-15T14:00:49;8.17;;;6.70;;
19566;SDS011;9930;49.240;8.548;2024-01-15T14:03:19;8.47;;;6.60;;
19566;SDS011;9930;49.240;8.548;2024-01-15T14:05:48;7.27;;;6.53;;
19566;SDS011;9930;49.240;8.548;2024-01-15T14:08:19;7.10;;;6.20;;
19566;SDS011;9930;49.240;8.548;2024-01-15T14:10:51;7.40;;;6.43;;
19566;SDS011;9930;49.240;8.548;2024-01-15T14:13:19;6.57;;;5.80;;
19566;SDS011;9930;49.240;8.548;2024-01-15T14:15:48;7.70;;;6.30;;
19566;SDS011;9930;49.240;8.548;2024-01-15T14:18:21;7.30;;;6.13;;
19566;SDS011;9930;49.240;8.548;2024-01-15T14:20:50;7.72;;;6.65;;
19566;SDS011;9930;49.240;8.548;2024-01-15T14:23:21;7.18;;;5.70;;
19566;SDS011;9930;49.240;8.548;2024-01-15T14:25:52;6.90;;;5.83;;
19566;SDS011;9930;49.240;8.548;2024-01-15T14:28:23;6.65;;;5.88;;
19566;SDS011;9930;49.240;8.548;2024-01-15T14:30:53;7.07;;;5.90;;
19566;SDS011;9930;49.240;8.548;2024-01-15T14:33:21;8.40;;;6.33;;
19566;SDS011;9930;49.240;8.548;2024-01-15T14:36:02;7.45;;;5.93;;
19566;SDS011;9930;49.240;8.548;2024-01-15T14:38:37;7.03;;;6.33;;
19566;SDS011;9930;49.240;8.548;2024-01-15T14:41:03;6.70;;;6.00;;
19566;SDS011;9930;49.240;8.548;2024-01-15T14:43:29;7.53;;;6.27;;
19566;SDS011;9930;49.240;8.548;2024-01-15T14:45:58;6.95;;;6.25;;
19566;SDS011;9930;49.240;8.548;2024-01-15T14:48:25;6.70;;;5.88;;
19566;SDS011;9930;49.240;8.548;2024-01-15T14:50:54;6.97;;;5.60;;
19566;SDS011;9930;49.240;8.548;2024-01-15T14:53:22;6.67;;;6.00;;
19566;SDS011;9930;49.240;8.548;2024-01-15T14:55:50;6.45;;;5.85;;
19566;SDS011;9930;49.240;8.548;2024-01-15T14:58:22;6.03;;;5.43;;
19566;SDS011;9930;49.240;8.548;2024-01-15T15:00:54;6.43;;;5.70;;
19566;SDS011;9930;49.240;8.548;2024-01-15T15:03:23;5.85;;;5.25;;
19566;SDS011;9930;49.240;8.548;2024-01-15T15:05:55;7.25;;;5.93;;
19566;SDS011;9930;49.240;8.548;2024-01-15T15:08:52;6.03;;;5.33;;
19566;SDS011;9930;49.240;8.548;2024-01-15T15:11:21;7.30;;;5.43;;
19566;SDS011;9930;49.240;8.548;2024-01-15T15:13:53;5.70;;;5.10;;
19566;SDS011;9930;49.240;8.548;2024-01-15T15:16:29;5.90;;;5.30;;